sensor_id;sensor_type;location;lat;lon;timestamp;temperature;humidity
488;DHT22;16586;48.976;9.584;2023-02-01T00:00:12;6.20;61.40
488;DHT22;16586;48.976;9.584;2023-02-01T00:02:39;6.20;60.40
488;DHT22;16586;48.976;9.584;2023-02-01T00:05:07;6.10;61.30
488;DHT22;16586;48.976;9.584;2023-02-01T00:07:34;6.10;61.30
488;DHT22;16586;48.976;9.584;2023-02-01T00:10:01;6.10;61.30
488;DHT22;16586;48.976;9.584;2023-02-01T00:12:29;6.00;61.20
488;DHT22;16586;48.976;9.584;2023-02-01T00:14:57;6.00;61.50
488;DHT22;16586;48.976;9.584;2023-02-01T00:17:24;6.00;61.20
488;DHT22;16586;48.976;9.584;2023-02-01T00:19:51;6.10;61.30
488;DHT22;16586;48.976;9.584;2023-02-01T00:22:18;6.20;60.90
488;DHT22;16586;48.976;9.584;2023-02-01T00:24:47;6.20;60.80
488;DHT22;16586;48.976;9.584;2023-02-01T00:27:14;6.20;61.10
488;DHT22;16586;48.976;9.584;2023-02-01T00:29:43;6.10;60.80
488;DHT22;16586;48.976;9.584;2023-02-01T00:32:12;6.20;60.90
488;DHT22;16586;48.976;9.584;2023-02-01T00:34:39;6.50;61.10
488;DHT22;16586;48.976;9.584;2023-02-01T00:37:05;6.20;60.50
488;DHT22;16586;48.976;9.584;2023-02-01T00:39:32;6.30;60.50
488;DHT22;16586;48.976;9.584;2023-02-01T00:42:00;6.30;60.20
488;DHT22;16586;48.976;9.584;2023-02-01T00:44:27;6.30;60.40
488;DHT22;16586;48.976;9.584;2023-02-01T00:46:58;6.30;60.00
488;DHT22;16586;48.976;9.584;2023-02-01T00:49:26;6.30;60.10
488;DHT22;16586;48.976;9.584;2023-02-01T00:51:53;6.20;59.90
488;DHT22;16586;48.976;9.584;2023-02-01T00:54:21;6.20;60.30
488;DHT22;16586;48.976;9.584;2023-02-01T00:56:47;6.20;60.30
488;DHT22;16586;48.976;9.584;2023-02-01T00:59:14;6.10;60.60
488;DHT22;16586;48.976;9.584;2023-02-01T01:01:41;6.00;60.90
488;DHT22;16586;48.976;9.584;2023-02-01T01:04:08;6.10;61.20
488;DHT22;16586;48.976;9.584;2023-02-01T01:06:36;6.20;60.80
488;DHT22;16586;48.976;9.584;2023-02-01T01:09:05;6.20;60.90
488;DHT22;16586;48.976;9.584;2023-02-01T01:11:34;6.20;60.00
488;DHT22;16586;48.976;9.584;2023-02-01T01:14:01;6.10;60.60
488;DHT22;16586;48.976;9.584;2023-02-01T01:16:29;6.20;60.70
488;DHT22;16586;48.976;9.584;2023-02-01T01:18:57;6.20;60.30
488;DHT22;16586;48.976;9.584;2023-02-01T01:21:25;6.10;60.00
488;DHT22;16586;48.976;9.584;2023-02-01T01:23:54;6.10;60.30
488;DHT22;16586;48.976;9.584;2023-02-01T01:26:22;6.10;60.50
488;DHT22;16586;48.976;9.584;2023-02-01T01:28:49;6.10;60.50
488;DHT22;16586;48.976;9.584;2023-02-01T01:31:17;6.00;60.50
488;DHT22;16586;48.976;9.584;2023-02-01T01:33:48;6.10;60.00
488;DHT22;16586;48.976;9.584;2023-02-01T01:36:15;6.10;60.00
488;DHT22;16586;48.976;9.584;2023-02-01T01:38:42;6.20;60.20
488;DHT22;16586;48.976;9.584;2023-02-01T01:41:14;6.20;60.10
488;DHT22;16586;48.976;9.584;2023-02-01T01:43:52;6.20;59.80
488;DHT22;16586;48.976;9.584;2023-02-01T01:46:21;6.10;59.90
488;DHT22;16586;48.976;9.584;2023-02-01T01:48:51;6.10;60.40
488;DHT22;16586;48.976;9.584;2023-02-01T01:51:21;6.70;60.70
488;DHT22;16586;48.976;9.584;2023-02-01T01:53:56;6.20;59.80
488;DHT22;16586;48.976;9.584;2023-02-01T01:56:26;6.20;59.80
488;DHT22;16586;48.976;9.584;2023-02-01T01:58:54;6.10;59.80
488;DHT22;16586;48.976;9.584;2023-02-01T02:01:21;6.00;60.00
488;DHT22;16586;48.976;9.584;2023-02-01T02:03:49;6.00;60.40
488;DHT22;16586;48.976;9.584;2023-02-01T02:06:24;6.10;60.00
488;DHT22;16586;48.976;9.584;2023-02-01T02:08:53;6.20;60.00
488;DHT22;16586;48.976;9.584;2023-02-01T02:11:19;6.20;59.40
488;DHT22;16586;48.976;9.584;2023-02-01T02:13:50;6.10;59.80
488;DHT22;16586;48.976;9.584;2023-02-01T02:16:36;6.20;59.90
488;DHT22;16586;48.976;9.584;2023-02-01T02:19:32;6.20;59.70
488;DHT22;16586;48.976;9.584;2023-02-01T02:22:35;6.20;59.50
488;DHT22;16586;48.976;9.584;2023-02-01T02:25:46;6.20;59.60
488;DHT22;16586;48.976;9.584;2023-02-01T02:31:32;6.20;59.50
488;DHT22;16586;48.976;9.584;2023-02-01T02:34:12;6.30;59.40
488;DHT22;16586;48.976;9.584;2023-02-01T02:36:48;6.20;59.40
488;DHT22;16586;48.976;9.584;2023-02-01T02:39:23;6.30;59.60
488;DHT22;16586;48.976;9.584;2023-02-01T02:41:59;6.30;59.30
488;DHT22;16586;48.976;9.584;2023-02-01T02:44:47;6.20;59.30
488;DHT22;16586;48.976;9.584;2023-02-01T02:47:50;6.20;59.60
488;DHT22;16586;48.976;9.584;2023-02-01T02:50:26;6.20;59.60
488;DHT22;16586;48.976;9.584;2023-02-01T02:53:18;6.20;59.60
488;DHT22;16586;48.976;9.584;2023-02-01T02:56:05;6.20;59.60
488;DHT22;16586;48.976;9.584;2023-02-01T02:58:51;6.20;59.90
488;DHT22;16586;48.976;9.584;2023-02-01T03:01:37;6.30;59.70
488;DHT22;16586;48.976;9.584;2023-02-01T03:04:21;6.30;59.20
488;DHT22;16586;48.976;9.584;2023-02-01T03:06:51;6.30;59.20
488;DHT22;16586;48.976;9.584;2023-02-01T03:09:22;6.20;59.60
488;DHT22;16586;48.976;9.584;2023-02-01T03:11:55;6.10;59.90
488;DHT22;16586;48.976;9.584;2023-02-01T03:14:41;6.30;59.50
488;DHT22;16586;48.976;9.584;2023-02-01T03:17:14;6.30;58.90
488;DHT22;16586;48.976;9.584;2023-02-01T03:19:45;6.30;59.20
488;DHT22;16586;48.976;9.584;2023-02-01T03:22:18;6.40;59.00
488;DHT22;16586;48.976;9.584;2023-02-01T03:24:48;6.40;58.90
488;DHT22;16586;48.976;9.584;2023-02-01T03:27:20;6.40;58.70
488;DHT22;16586;48.976;9.584;2023-02-01T03:29:51;6.50;58.70
488;DHT22;16586;48.976;9.584;2023-02-01T03:32:19;6.50;58.50
488;DHT22;16586;48.976;9.584;2023-02-01T03:34:46;6.60;58.30
488;DHT22;16586;48.976;9.584;2023-02-01T03:37:19;6.60;58.30
488;DHT22;16586;48.976;9.584;2023-02-01T03:39:52;6.80;58.00
488;DHT22;16586;48.976;9.584;2023-02-01T03:42:24;6.60;58.00
488;DHT22;16586;48.976;9.584;2023-02-01T03:44:54;6.70;57.70
488;DHT22;16586;48.976;9.584;2023-02-01T03:47:23;6.80;57.60
488;DHT22;16586;48.976;9.584;2023-02-01T03:49:54;6.70;57.50
488;DHT22;16586;48.976;9.584;2023-02-01T03:52:27;6.60;57.40
488;DHT22;16586;48.976;9.584;2023-02-01T03:54:55;6.70;57.50
488;DHT22;16586;48.976;9.584;2023-02-01T03:57:27;6.70;57.50
488;DHT22;16586;48.976;9.584;2023-02-01T04:00:04;6.70;57.50
488;DHT22;16586;48.976;9.584;2023-02-01T04:02:31;6.70;57.50
488;DHT22;16586;48.976;9.584;2023-02-01T04:04:57;6.80;57.20
488;DHT22;16586;48.976;9.584;2023-02-01T04:07:26;6.80;56.80
488;DHT22;16586;48.976;9.584;2023-02-01T04:09:52;6.80;57.00
488;DHT22;16586;48.976;9.584;2023-02-01T04:12:19;6.80;56.80
488;DHT22;16586;48.976;9.584;2023-02-01T04:14:46;6.70;57.50
488;DHT22;16586;48.976;9.584;2023-02-01T04:17:15;6.70;57.40
488;DHT22;16586;48.976;9.584;2023-02-01T04:19:42;6.60;57.40
488;DHT22;16586;48.976;9.584;2023-02-01T04:22:09;6.70;57.50
488;DHT22;16586;48.976;9.584;2023-02-01T04:24:37;6.60;57.40
488;DHT22;16586;48.976;9.584;2023-02-01T04:27:04;6.60;57.40
488;DHT22;16586;48.976;9.584;2023-02-01T04:29:31;6.60;57.50
488;DHT22;16586;48.976;9.584;2023-02-01T04:31:57;6.60;57.40
488;DHT22;16586;48.976;9.584;2023-02-01T04:34:24;6.60;57.70
488;DHT22;16586;48.976;9.584;2023-02-01T04:36:51;6.60;58.50
488;DHT22;16586;48.976;9.584;2023-02-01T04:39:18;6.60;57.70
488;DHT22;16586;48.976;9.584;2023-02-01T04:41:46;6.60;57.50
488;DHT22;16586;48.976;9.584;2023-02-01T04:44:15;6.60;57.40
488;DHT22;16586;48.976;9.584;2023-02-01T04:46:42;6.70;57.60
488;DHT22;16586;48.976;9.584;2023-02-01T04:49:09;6.70;57.50
488;DHT22;16586;48.976;9.584;2023-02-01T04:51:36;6.70;57.50
488;DHT22;16586;48.976;9.584;2023-02-01T04:54:03;6.70;57.50
488;DHT22;16586;48.976;9.584;2023-02-01T04:56:30;6.60;57.40
488;DHT22;16586;48.976;9.584;2023-02-01T04:58:58;6.60;57.60
488;DHT22;16586;48.976;9.584;2023-02-01T05:01:25;6.60;57.60
488;DHT22;16586;48.976;9.584;2023-02-01T05:03:52;6.60;57.90
488;DHT22;16586;48.976;9.584;2023-02-01T05:06:19;6.70;57.50
488;DHT22;16586;48.976;9.584;2023-02-01T05:08:45;6.60;57.40
488;DHT22;16586;48.976;9.584;2023-02-01T05:11:12;6.60;58.10
488;DHT22;16586;48.976;9.584;2023-02-01T05:13:53;6.60;57.60
488;DHT22;16586;48.976;9.584;2023-02-01T05:16:21;6.60;58.10
488;DHT22;16586;48.976;9.584;2023-02-01T05:18:48;6.80;58.00
488;DHT22;16586;48.976;9.584;2023-02-01T05:21:14;6.70;57.70
488;DHT22;16586;48.976;9.584;2023-02-01T05:23:41;6.70;57.70
488;DHT22;16586;48.976;9.584;2023-02-01T05:26:22;7.30;58.10
488;DHT22;16586;48.976;9.584;2023-02-01T05:28:48;6.80;57.60
488;DHT22;16586;48.976;9.584;2023-02-01T05:31:15;6.70;57.50
488;DHT22;16586;48.976;9.584;2023-02-01T05:33:43;6.70;57.50
488;DHT22;16586;48.976;9.584;2023-02-01T05:36:10;6.70;57.50
488;DHT22;16586;48.976;9.584;2023-02-01T05:38:37;6.60;57.40
488;DHT22;16586;48.976;9.584;2023-02-01T05:41:04;6.70;57.50
488;DHT22;16586;48.976;9.584;2023-02-01T05:43:30;6.70;57.50
488;DHT22;16586;48.976;9.584;2023-02-01T05:45:57;6.70;57.50
488;DHT22;16586;48.976;9.584;2023-02-01T05:48:24;6.70;57.50
488;DHT22;16586;48.976;9.584;2023-02-01T05:50:52;6.60;57.70
488;DHT22;16586;48.976;9.584;2023-02-01T05:53:19;6.70;57.80
488;DHT22;16586;48.976;9.584;2023-02-01T05:55:46;6.70;57.80
488;DHT22;16586;48.976;9.584;2023-02-01T05:58:13;6.70;57.50
488;DHT22;16586;48.976;9.584;2023-02-01T06:00:40;6.70;57.80
488;DHT22;16586;48.976;9.584;2023-02-01T06:03:07;6.80;57.60
488;DHT22;16586;48.976;9.584;2023-02-01T06:05:34;6.70;57.50
488;DHT22;16586;48.976;9.584;2023-02-01T06:08:03;6.60;57.80
488;DHT22;16586;48.976;9.584;2023-02-01T06:10:32;6.70;57.50
488;DHT22;16586;48.976;9.584;2023-02-01T06:12:59;6.70;57.80
488;DHT22;16586;48.976;9.584;2023-02-01T06:15:26;6.80;57.60
488;DHT22;16586;48.976;9.584;2023-02-01T06:17:53;6.80;57.60
488;DHT22;16586;48.976;9.584;2023-02-01T06:20:20;6.90;58.30
488;DHT22;16586;48.976;9.584;2023-02-01T06:22:47;6.80;57.60
488;DHT22;16586;48.976;9.584;2023-02-01T06:25:15;6.70;58.60
488;DHT22;16586;48.976;9.584;2023-02-01T06:27:42;6.80;58.20
488;DHT22;16586;48.976;9.584;2023-02-01T06:30:10;6.80;57.80
488;DHT22;16586;48.976;9.584;2023-02-01T06:32:41;6.90;57.70
488;DHT22;16586;48.976;9.584;2023-02-01T06:35:09;6.90;57.70
488;DHT22;16586;48.976;9.584;2023-02-01T06:37:41;6.90;57.70
488;DHT22;16586;48.976;9.584;2023-02-01T06:40:09;6.90;57.70
488;DHT22;16586;48.976;9.584;2023-02-01T06:42:37;6.90;57.60
488;DHT22;16586;48.976;9.584;2023-02-01T06:45:04;7.00;57.70
488;DHT22;16586;48.976;9.584;2023-02-01T06:47:32;7.00;57.70
488;DHT22;16586;48.976;9.584;2023-02-01T06:49:59;7.00;57.70
488;DHT22;16586;48.976;9.584;2023-02-01T06:52:26;7.10;57.80
488;DHT22;16586;48.976;9.584;2023-02-01T06:54:52;7.10;57.80
488;DHT22;16586;48.976;9.584;2023-02-01T06:57:19;7.10;57.80
488;DHT22;16586;48.976;9.584;2023-02-01T06:59:47;7.10;57.80
488;DHT22;16586;48.976;9.584;2023-02-01T07:02:14;7.10;57.80
488;DHT22;16586;48.976;9.584;2023-02-01T07:04:41;7.10;57.80
488;DHT22;16586;48.976;9.584;2023-02-01T07:07:07;7.10;57.80
488;DHT22;16586;48.976;9.584;2023-02-01T07:09:34;7.10;58.20
488;DHT22;16586;48.976;9.584;2023-02-01T07:12:01;7.10;60.00
488;DHT22;16586;48.976;9.584;2023-02-01T07:14:28;7.10;61.10
488;DHT22;16586;48.976;9.584;2023-02-01T07:16:56;7.00;61.30
488;DHT22;16586;48.976;9.584;2023-02-01T07:19:22;7.00;62.10
488;DHT22;16586;48.976;9.584;2023-02-01T07:21:49;6.90;62.00
488;DHT22;16586;48.976;9.584;2023-02-01T07:24:16;6.90;62.40
488;DHT22;16586;48.976;9.584;2023-02-01T07:26:42;6.90;62.00
488;DHT22;16586;48.976;9.584;2023-02-01T07:29:09;6.80;62.40
488;DHT22;16586;48.976;9.584;2023-02-01T07:31:36;7.20;62.30
488;DHT22;16586;48.976;9.584;2023-02-01T07:34:04;6.80;61.90
488;DHT22;16586;48.976;9.584;2023-02-01T07:36:31;6.70;62.00
488;DHT22;16586;48.976;9.584;2023-02-01T07:38:58;6.70;62.20
488;DHT22;16586;48.976;9.584;2023-02-01T07:41:25;6.80;62.00
488;DHT22;16586;48.976;9.584;2023-02-01T07:43:52;6.80;62.00
488;DHT22;16586;48.976;9.584;2023-02-01T07:46:19;6.80;61.90
488;DHT22;16586;48.976;9.584;2023-02-01T07:48:46;7.50;62.60
488;DHT22;16586;48.976;9.584;2023-02-01T07:51:15;6.90;62.30
488;DHT22;16586;48.976;9.584;2023-02-01T07:53:43;6.90;62.20
488;DHT22;16586;48.976;9.584;2023-02-01T07:56:12;6.90;62.60
488;DHT22;16586;48.976;9.584;2023-02-01T07:58:38;6.90;62.00
488;DHT22;16586;48.976;9.584;2023-02-01T08:01:05;6.80;62.10
488;DHT22;16586;48.976;9.584;2023-02-01T08:03:51;6.80;62.40
488;DHT22;16586;48.976;9.584;2023-02-01T08:06:19;6.80;62.70
488;DHT22;16586;48.976;9.584;2023-02-01T08:08:46;7.20;63.10
488;DHT22;16586;48.976;9.584;2023-02-01T08:11:14;6.80;62.40
488;DHT22;16586;48.976;9.584;2023-02-01T08:13:41;7.10;62.50
488;DHT22;16586;48.976;9.584;2023-02-01T08:16:10;6.70;62.40
488;DHT22;16586;48.976;9.584;2023-02-01T08:18:38;6.70;63.30
488;DHT22;16586;48.976;9.584;2023-02-01T08:21:06;6.70;63.00
488;DHT22;16586;48.976;9.584;2023-02-01T08:23:35;6.70;63.20
488;DHT22;16586;48.976;9.584;2023-02-01T08:26:11;6.80;63.70
488;DHT22;16586;48.976;9.584;2023-02-01T08:28:41;6.80;63.30
488;DHT22;16586;48.976;9.584;2023-02-01T08:31:09;6.80;63.20
488;DHT22;16586;48.976;9.584;2023-02-01T08:33:36;6.90;63.20
488;DHT22;16586;48.976;9.584;2023-02-01T08:36:04;6.80;63.30
488;DHT22;16586;48.976;9.584;2023-02-01T08:38:31;6.90;62.80
488;DHT22;16586;48.976;9.584;2023-02-01T08:41:04;6.90;62.70
488;DHT22;16586;48.976;9.584;2023-02-01T08:43:31;6.90;62.50
488;DHT22;16586;48.976;9.584;2023-02-01T08:45:58;7.00;63.00
488;DHT22;16586;48.976;9.584;2023-02-01T08:48:24;7.00;62.90
488;DHT22;16586;48.976;9.584;2023-02-01T08:50:51;7.10;62.40
488;DHT22;16586;48.976;9.584;2023-02-01T08:53:18;7.10;62.20
488;DHT22;16586;48.976;9.584;2023-02-01T08:55:45;7.20;62.00
488;DHT22;16586;48.976;9.584;2023-02-01T08:58:13;7.20;62.50
488;DHT22;16586;48.976;9.584;2023-02-01T09:00:42;7.40;60.80
488;DHT22;16586;48.976;9.584;2023-02-01T09:03:11;7.90;60.70
488;DHT22;16586;48.976;9.584;2023-02-01T09:05:38;7.50;60.10
488;DHT22;16586;48.976;9.584;2023-02-01T09:08:05;7.40;59.40
488;DHT22;16586;48.976;9.584;2023-02-01T09:10:33;7.50;59.20
488;DHT22;16586;48.976;9.584;2023-02-01T09:13:00;7.50;59.00
488;DHT22;16586;48.976;9.584;2023-02-01T09:15:31;7.40;58.20
488;DHT22;16586;48.976;9.584;2023-02-01T09:17:57;7.40;58.40
488;DHT22;16586;48.976;9.584;2023-02-01T09:20:24;7.50;58.50
488;DHT22;16586;48.976;9.584;2023-02-01T09:22:51;7.50;58.50
488;DHT22;16586;48.976;9.584;2023-02-01T09:25:18;7.60;58.30
488;DHT22;16586;48.976;9.584;2023-02-01T09:27:45;7.60;57.50
488;DHT22;16586;48.976;9.584;2023-02-01T09:30:12;7.70;57.90
488;DHT22;16586;48.976;9.584;2023-02-01T09:32:41;7.80;57.60
488;DHT22;16586;48.976;9.584;2023-02-01T09:35:08;8.10;57.50
488;DHT22;16586;48.976;9.584;2023-02-01T09:37:34;7.80;55.90
488;DHT22;16586;48.976;9.584;2023-02-01T09:40:03;7.80;56.50
488;DHT22;16586;48.976;9.584;2023-02-01T09:42:55;7.80;56.60
488;DHT22;16586;48.976;9.584;2023-02-01T09:45:31;7.80;56.80
488;DHT22;16586;48.976;9.584;2023-02-01T09:48:09;7.90;56.10
488;DHT22;16586;48.976;9.584;2023-02-01T09:50:39;7.90;55.40
488;DHT22;16586;48.976;9.584;2023-02-01T09:53:12;7.90;55.40
488;DHT22;16586;48.976;9.584;2023-02-01T09:55:45;7.80;55.60
488;DHT22;16586;48.976;9.584;2023-02-01T09:58:15;7.80;55.40
488;DHT22;16586;48.976;9.584;2023-02-01T10:00:50;7.90;55.30
488;DHT22;16586;48.976;9.584;2023-02-01T10:03:19;7.80;55.60
488;DHT22;16586;48.976;9.584;2023-02-01T10:06:16;7.70;57.10
488;DHT22;16586;48.976;9.584;2023-02-01T10:08:59;7.70;59.00
488;DHT22;16586;48.976;9.584;2023-02-01T10:11:39;7.60;58.20
488;DHT22;16586;48.976;9.584;2023-02-01T10:14:24;7.60;58.70
488;DHT22;16586;48.976;9.584;2023-02-01T10:17:00;7.50;59.00
488;DHT22;16586;48.976;9.584;2023-02-01T10:19:37;7.80;59.00
488;DHT22;16586;48.976;9.584;2023-02-01T10:22:09;7.60;58.20
488;DHT22;16586;48.976;9.584;2023-02-01T10:24:40;7.60;58.60
488;DHT22;16586;48.976;9.584;2023-02-01T10:27:14;7.60;57.80
488;DHT22;16586;48.976;9.584;2023-02-01T10:29:43;7.60;58.20
488;DHT22;16586;48.976;9.584;2023-02-01T10:32:14;7.60;57.20
488;DHT22;16586;48.976;9.584;2023-02-01T10:34:44;7.70;56.50
488;DHT22;16586;48.976;9.584;2023-02-01T10:37:23;7.70;56.40
488;DHT22;16586;48.976;9.584;2023-02-01T10:39:54;7.90;55.40
488;DHT22;16586;48.976;9.584;2023-02-01T10:42:25;7.80;55.50
488;DHT22;16586;48.976;9.584;2023-02-01T10:44:53;7.70;55.10
488;DHT22;16586;48.976;9.584;2023-02-01T10:47:21;7.80;55.20
488;DHT22;16586;48.976;9.584;2023-02-01T10:49:54;7.90;55.50
488;DHT22;16586;48.976;9.584;2023-02-01T10:52:31;7.90;55.30
488;DHT22;16586;48.976;9.584;2023-02-01T10:58:03;8.10;53.90
488;DHT22;16586;48.976;9.584;2023-02-01T11:00:39;8.10;53.70
488;DHT22;16586;48.976;9.584;2023-02-01T11:03:33;8.10;53.20
488;DHT22;16586;48.976;9.584;2023-02-01T11:06:04;8.20;52.50
488;DHT22;16586;48.976;9.584;2023-02-01T11:08:42;8.20;52.30
488;DHT22;16586;48.976;9.584;2023-02-01T11:11:10;8.00;52.40
488;DHT22;16586;48.976;9.584;2023-02-01T11:13:39;8.10;52.20
488;DHT22;16586;48.976;9.584;2023-02-01T11:16:08;8.10;51.90
488;DHT22;16586;48.976;9.584;2023-02-01T11:18:37;8.30;52.00
488;DHT22;16586;48.976;9.584;2023-02-01T11:21:07;8.00;52.50
488;DHT22;16586;48.976;9.584;2023-02-01T11:23:40;8.00;52.30
488;DHT22;16586;48.976;9.584;2023-02-01T11:26:13;8.10;51.60
488;DHT22;16586;48.976;9.584;2023-02-01T11:28:45;8.00;51.60
488;DHT22;16586;48.976;9.584;2023-02-01T11:31:14;8.10;51.30
488;DHT22;16586;48.976;9.584;2023-02-01T11:33:47;8.20;50.20
488;DHT22;16586;48.976;9.584;2023-02-01T11:36:18;8.30;50.60
488;DHT22;16586;48.976;9.584;2023-02-01T11:38:51;8.20;50.50
488;DHT22;16586;48.976;9.584;2023-02-01T11:41:22;8.30;50.30
488;DHT22;16586;48.976;9.584;2023-02-01T11:43:55;8.30;50.30
488;DHT22;16586;48.976;9.584;2023-02-01T11:46:24;8.30;49.10
488;DHT22;16586;48.976;9.584;2023-02-01T11:48:54;8.80;49.80
488;DHT22;16586;48.976;9.584;2023-02-01T11:51:35;8.20;49.50
488;DHT22;16586;48.976;9.584;2023-02-01T11:54:15;8.10;49.20
488;DHT22;16586;48.976;9.584;2023-02-01T11:56:49;8.20;50.50
488;DHT22;16586;48.976;9.584;2023-02-01T11:59:29;8.10;49.30
488;DHT22;16586;48.976;9.584;2023-02-01T12:02:11;8.10;49.20
488;DHT22;16586;48.976;9.584;2023-02-01T12:05:07;8.10;49.00
488;DHT22;16586;48.976;9.584;2023-02-01T12:07:47;8.00;48.90
488;DHT22;16586;48.976;9.584;2023-02-01T12:10:28;8.10;48.60
488;DHT22;16586;48.976;9.584;2023-02-01T12:13:06;8.10;48.40
488;DHT22;16586;48.976;9.584;2023-02-01T12:15:46;8.00;48.40
488;DHT22;16586;48.976;9.584;2023-02-01T12:18:44;8.10;48.50
488;DHT22;16586;48.976;9.584;2023-02-01T12:21:37;8.10;48.40
488;DHT22;16586;48.976;9.584;2023-02-01T12:24:32;8.10;48.30
488;DHT22;16586;48.976;9.584;2023-02-01T12:27:17;8.20;47.50
488;DHT22;16586;48.976;9.584;2023-02-01T12:29:59;8.20;47.50
488;DHT22;16586;48.976;9.584;2023-02-01T12:32:39;8.10;47.80
488;DHT22;16586;48.976;9.584;2023-02-01T12:35:25;8.20;47.40
488;DHT22;16586;48.976;9.584;2023-02-01T12:38:07;8.20;47.30
488;DHT22;16586;48.976;9.584;2023-02-01T12:40:50;8.60;47.30
488;DHT22;16586;48.976;9.584;2023-02-01T12:43:22;8.20;46.70
488;DHT22;16586;48.976;9.584;2023-02-01T12:45:55;8.10;46.80
488;DHT22;16586;48.976;9.584;2023-02-01T12:48:27;8.00;46.80
488;DHT22;16586;48.976;9.584;2023-02-01T12:50:57;8.10;47.30
488;DHT22;16586;48.976;9.584;2023-02-01T12:53:31;8.50;47.60
488;DHT22;16586;48.976;9.584;2023-02-01T12:56:05;7.90;47.60
488;DHT22;16586;48.976;9.584;2023-02-01T12:58:40;8.00;47.50
488;DHT22;16586;48.976;9.584;2023-02-01T13:01:13;8.00;47.40
488;DHT22;16586;48.976;9.584;2023-02-01T13:03:49;8.00;47.70
488;DHT22;16586;48.976;9.584;2023-02-01T13:06:19;8.00;47.60
488;DHT22;16586;48.976;9.584;2023-02-01T13:08:48;8.00;47.80
488;DHT22;16586;48.976;9.584;2023-02-01T13:11:22;8.10;47.50
488;DHT22;16586;48.976;9.584;2023-02-01T13:13:58;8.10;47.30
488;DHT22;16586;48.976;9.584;2023-02-01T13:16:30;8.10;47.40
488;DHT22;16586;48.976;9.584;2023-02-01T13:19:03;8.50;47.60
488;DHT22;16586;48.976;9.584;2023-02-01T13:21:34;8.00;46.90
488;DHT22;16586;48.976;9.584;2023-02-01T13:24:02;8.00;47.20
488;DHT22;16586;48.976;9.584;2023-02-01T13:26:31;7.90;47.30
488;DHT22;16586;48.976;9.584;2023-02-01T13:29:00;8.00;47.30
488;DHT22;16586;48.976;9.584;2023-02-01T13:32:03;8.00;47.50
488;DHT22;16586;48.976;9.584;2023-02-01T13:34:50;8.00;47.40
488;DHT22;16586;48.976;9.584;2023-02-01T13:40:39;8.10;47.30
488;DHT22;16586;48.976;9.584;2023-02-01T13:43:12;8.20;48.30
488;DHT22;16586;48.976;9.584;2023-02-01T13:45:46;8.10;47.20
488;DHT22;16586;48.976;9.584;2023-02-01T13:48:24;8.20;47.50
488;DHT22;16586;48.976;9.584;2023-02-01T13:50:55;8.10;48.10
488;DHT22;16586;48.976;9.584;2023-02-01T13:53:27;8.10;48.10
488;DHT22;16586;48.976;9.584;2023-02-01T13:55:58;8.00;48.00
488;DHT22;16586;48.976;9.584;2023-02-01T13:58:36;8.00;48.40
488;DHT22;16586;48.976;9.584;2023-02-01T14:07:20;8.00;49.10
488;DHT22;16586;48.976;9.584;2023-02-01T14:09:47;7.90;49.40
488;DHT22;16586;48.976;9.584;2023-02-01T14:12:46;7.90;49.60
488;DHT22;16586;48.976;9.584;2023-02-01T14:15:20;7.80;49.70
488;DHT22;16586;48.976;9.584;2023-02-01T14:17:49;7.70;49.80
488;DHT22;16586;48.976;9.584;2023-02-01T14:20:43;7.80;49.90
488;DHT22;16586;48.976;9.584;2023-02-01T14:23:23;7.70;50.50
488;DHT22;16586;48.976;9.584;2023-02-01T14:26:14;7.80;49.80
488;DHT22;16586;48.976;9.584;2023-02-01T14:28:45;7.80;49.50
488;DHT22;16586;48.976;9.584;2023-02-01T14:31:35;7.80;49.20
488;DHT22;16586;48.976;9.584;2023-02-01T14:34:15;7.70;49.70
488;DHT22;16586;48.976;9.584;2023-02-01T14:36:46;7.80;49.80
488;DHT22;16586;48.976;9.584;2023-02-01T14:39:40;7.70;49.70
488;DHT22;16586;48.976;9.584;2023-02-01T14:42:26;7.80;49.50
488;DHT22;16586;48.976;9.584;2023-02-01T14:44:54;7.90;49.10
488;DHT22;16586;48.976;9.584;2023-02-01T14:47:38;8.20;49.20
488;DHT22;16586;48.976;9.584;2023-02-01T14:50:17;7.90;48.80
488;DHT22;16586;48.976;9.584;2023-02-01T14:52:47;7.90;49.10
488;DHT22;16586;48.976;9.584;2023-02-01T14:55:17;7.80;48.90
488;DHT22;16586;48.976;9.584;2023-02-01T14:57:48;7.80;49.10
488;DHT22;16586;48.976;9.584;2023-02-01T15:00:20;7.80;49.50
488;DHT22;16586;48.976;9.584;2023-02-01T15:02:50;7.80;49.80
488;DHT22;16586;48.976;9.584;2023-02-01T15:05:27;7.80;49.90
488;DHT22;16586;48.976;9.584;2023-02-01T15:07:58;7.70;49.70
488;DHT22;16586;48.976;9.584;2023-02-01T15:10:27;7.70;49.70
488;DHT22;16586;48.976;9.584;2023-02-01T15:12:56;7.60;51.00
488;DHT22;16586;48.976;9.584;2023-02-01T15:15:24;7.60;51.10
488;DHT22;16586;48.976;9.584;2023-02-01T15:17:54;7.50;50.50
488;DHT22;16586;48.976;9.584;2023-02-01T15:20:22;7.50;50.80
488;DHT22;16586;48.976;9.584;2023-02-01T15:22:55;7.50;51.10
488;DHT22;16586;48.976;9.584;2023-02-01T15:25:24;7.60;50.20
488;DHT22;16586;48.976;9.584;2023-02-01T15:27:51;7.60;50.20
488;DHT22;16586;48.976;9.584;2023-02-01T15:30:21;7.50;50.40
488;DHT22;16586;48.976;9.584;2023-02-01T15:32:49;7.60;50.40
488;DHT22;16586;48.976;9.584;2023-02-01T15:35:39;7.60;49.80
488;DHT22;16586;48.976;9.584;2023-02-01T15:38:35;7.60;49.70
488;DHT22;16586;48.976;9.584;2023-02-01T15:41:07;7.70;49.70
488;DHT22;16586;48.976;9.584;2023-02-01T15:43:38;7.60;49.70
488;DHT22;16586;48.976;9.584;2023-02-01T15:46:09;7.60;49.70
488;DHT22;16586;48.976;9.584;2023-02-01T15:48:41;7.60;49.70
488;DHT22;16586;48.976;9.584;2023-02-01T15:51:19;7.60;49.70
488;DHT22;16586;48.976;9.584;2023-02-01T15:53:50;7.60;49.80
488;DHT22;16586;48.976;9.584;2023-02-01T15:56:22;7.60;49.70
488;DHT22;16586;48.976;9.584;2023-02-01T15:58:53;7.60;49.40
488;DHT22;16586;48.976;9.584;2023-02-01T16:01:20;7.60;49.10
488;DHT22;16586;48.976;9.584;2023-02-01T16:03:47;7.60;48.50
488;DHT22;16586;48.976;9.584;2023-02-01T16:06:29;7.60;48.80
488;DHT22;16586;48.976;9.584;2023-02-01T16:09:03;8.00;49.00
488;DHT22;16586;48.976;9.584;2023-02-01T16:11:41;7.70;49.00
488;DHT22;16586;48.976;9.584;2023-02-01T16:14:08;7.70;48.30
488;DHT22;16586;48.976;9.584;2023-02-01T16:16:35;7.70;48.50
488;DHT22;16586;48.976;9.584;2023-02-01T16:19:01;7.70;48.30
488;DHT22;16586;48.976;9.584;2023-02-01T16:21:30;8.20;48.60
488;DHT22;16586;48.976;9.584;2023-02-01T16:23:56;7.70;48.10
488;DHT22;16586;48.976;9.584;2023-02-01T16:26:24;7.70;48.00
488;DHT22;16586;48.976;9.584;2023-02-01T16:28:51;7.70;47.90
488;DHT22;16586;48.976;9.584;2023-02-01T16:31:23;7.60;48.60
488;DHT22;16586;48.976;9.584;2023-02-01T16:33:53;7.60;48.40
488;DHT22;16586;48.976;9.584;2023-02-01T16:36:20;8.00;48.50
488;DHT22;16586;48.976;9.584;2023-02-01T16:38:48;7.70;48.00
488;DHT22;16586;48.976;9.584;2023-02-01T16:41:18;7.70;48.30
488;DHT22;16586;48.976;9.584;2023-02-01T16:43:45;7.70;48.40
488;DHT22;16586;48.976;9.584;2023-02-01T16:46:14;7.80;48.20
488;DHT22;16586;48.976;9.584;2023-02-01T16:48:44;7.80;48.10
488;DHT22;16586;48.976;9.584;2023-02-01T16:51:13;7.90;48.20
488;DHT22;16586;48.976;9.584;2023-02-01T16:53:41;7.80;48.00
488;DHT22;16586;48.976;9.584;2023-02-01T16:56:13;7.80;47.80
488;DHT22;16586;48.976;9.584;2023-02-01T16:58:40;7.70;47.50
488;DHT22;16586;48.976;9.584;2023-02-01T17:01:09;7.70;47.80